Time;durP1;ratioP1;P1;durP2;ratioP2;P2;SDS_P1;SDS_P2;PMS_P1;PMS_P2;Temp;Humidity;BMP_temperature;BMP_pressure;BME280_temperature;BME280_humidity;BME280_pressure;Samples;Min_cycle;Max_cycle;Signal;HPM_P1;HPM_P2
2022/01/04 00:01:08;;;;;;;4.22;1.30;;;;;;;;;;6263956;23;20012;-91
2022/01/04 00:03:34;;;;;;;5.18;1.30;;;;;;;;;;6263781;23;20004;-90
2022/01/04 00:06:01;;;;;;;5.95;1.30;;;;;;;;;;6212650;23;20012;-90
2022/01/04 00:08:27;;;;;;;5.75;1.25;;;;;;;;;;6266039;23;20012;-89
2022/01/04 00:11:05;;;;;;;8.20;1.40;;;;;;;;;;6270103;22;19996;-91
2022/01/04 00:13:33;;;;;;;3.45;0.85;;;;;;;;;;6266717;22;19988;-88
2022/01/04 00:15:59;;;;;;;4.60;1.50;;;;;;;;;;6244148;23;20046;-90
2022/01/04 00:18:29;;;;;;;5.82;1.30;;;;;;;;;;6270018;22;20027;-86
2022/01/04 00:20:55;;;;;;;3.13;0.85;;;;;;;;;;6269680;22;20019;-90
2022/01/04 00:23:23;;;;;;;4.28;1.00;;;;;;;;;;6262075;23;20042;-91
2022/01/04 00:25:50;;;;;;;2.92;0.82;;;;;;;;;;6258521;23;20348;-89
2022/01/04 00:28:17;;;;;;;3.05;0.70;;;;;;;;;;6264475;23;20030;-90
2022/01/04 00:30:43;;;;;;;1.48;0.60;;;;;;;;;;6241413;23;20011;-90
2022/01/04 00:33:11;;;;;;;1.73;0.60;;;;;;;;;;6239267;23;20011;-89
2022/01/04 00:35:39;;;;;;;2.75;0.70;;;;;;;;;;6240545;23;20016;-90
2022/01/04 00:38:05;;;;;;;3.90;0.93;;;;;;;;;;6241385;23;20051;-90
2022/01/04 00:40:32;;;;;;;1.02;0.50;;;;;;;;;;6240296;23;20020;-90
2022/01/04 00:42:59;;;;;;;3.60;0.90;;;;;;;;;;6239423;23;20009;-90
2022/01/04 00:45:26;;;;;;;2.42;0.70;;;;;;;;;;6240817;23;20015;-91
2022/01/04 00:50:25;;;;;;;1.88;0.55;;;;;;;;;;6240035;23;20009;-90
2022/01/04 00:52:51;;;;;;;4.82;0.90;;;;;;;;;;6245802;23;20070;-89
2022/01/04 00:55:18;;;;;;;3.47;1.08;;;;;;;;;;6246999;23;20023;-89
2022/01/04 00:57:44;;;;;;;3.10;0.75;;;;;;;;;;6229531;23;20008;-89
2022/01/04 01:00:12;;;;;;;3.45;0.70;;;;;;;;;;6237863;23;20038;-91
2022/01/04 01:02:38;;;;;;;3.78;1.02;;;;;;;;;;6237156;23;20030;-90
2022/01/04 01:05:05;;;;;;;2.35;0.85;;;;;;;;;;6250914;23;20012;-89
2022/01/04 01:07:33;;;;;;;2.45;0.80;;;;;;;;;;6250768;23;20016;-88
2022/01/04 01:12:32;;;;;;;4.80;0.75;;;;;;;;;;6239474;22;20016;-89
2022/01/04 01:14:59;;;;;;;2.35;1.00;;;;;;;;;;6240987;23;20074;-90
2022/01/04 01:17:25;;;;;;;3.05;0.93;;;;;;;;;;6242204;23;20019;-88
2022/01/04 01:19:52;;;;;;;1.52;0.65;;;;;;;;;;6242825;23;20016;-89
2022/01/04 01:22:18;;;;;;;2.42;0.68;;;;;;;;;;6258808;23;20012;-89
2022/01/04 01:24:45;;;;;;;1.58;0.63;;;;;;;;;;6237540;23;20007;-88
2022/01/04 01:27:11;;;;;;;2.10;0.70;;;;;;;;;;6264565;23;20005;-89
2022/01/04 01:29:37;;;;;;;3.67;0.70;;;;;;;;;;6254987;23;20023;-91
2022/01/04 01:32:04;;;;;;;2.95;1.08;;;;;;;;;;6266892;23;20008;-90
2022/01/04 01:34:30;;;;;;;3.45;0.65;;;;;;;;;;6250371;23;20016;-90
2022/01/04 01:36:57;;;;;;;2.17;0.55;;;;;;;;;;6260072;23;20031;-90
2022/01/04 01:39:23;;;;;;;1.48;0.70;;;;;;;;;;6242777;23;20019;-90
2022/01/04 01:41:49;;;;;;;2.83;0.80;;;;;;;;;;6241878;23;20321;-89
2022/01/04 01:44:18;;;;;;;1.25;0.60;;;;;;;;;;6239490;23;20452;-90
2022/01/04 01:46:44;;;;;;;2.05;0.57;;;;;;;;;;6212619;23;20008;-90
2022/01/04 01:49:10;;;;;;;1.05;0.45;;;;;;;;;;6239692;23;20456;-88
2022/01/04 01:51:37;;;;;;;2.03;0.63;;;;;;;;;;6239098;23;20023;-89
2022/01/04 01:54:03;;;;;;;1.88;0.60;;;;;;;;;;6263238;23;20056;-89
2022/01/04 01:56:30;;;;;;;2.90;0.77;;;;;;;;;;6226017;23;20035;-90
2022/01/04 01:58:57;;;;;;;1.70;0.55;;;;;;;;;;6265360;23;20063;-89
2022/01/04 02:01:23;;;;;;;1.52;0.65;;;;;;;;;;6263882;23;19996;-86
2022/01/04 02:03:50;;;;;;;1.70;0.82;;;;;;;;;;6236995;23;20088;-89
2022/01/04 02:06:16;;;;;;;2.38;0.70;;;;;;;;;;6236841;23;20005;-90
2022/01/04 02:08:43;;;;;;;0.93;0.38;;;;;;;;;;6242714;23;20015;-90
2022/01/04 02:11:09;;;;;;;2.03;0.57;;;;;;;;;;6214920;23;20012;-89
2022/01/04 02:13:35;;;;;;;1.77;0.45;;;;;;;;;;6243630;23;20012;-88
2022/01/04 02:16:02;;;;;;;3.75;0.55;;;;;;;;;;6232705;23;20012;-89
2022/01/04 02:18:29;;;;;;;1.42;0.50;;;;;;;;;;6226125;23;20020;-90
2022/01/04 02:20:55;;;;;;;1.02;0.50;;;;;;;;;;6244709;23;20004;-89
2022/01/04 02:23:22;;;;;;;2.15;0.38;;;;;;;;;;6249683;23;20016;-88
2022/01/04 02:25:49;;;;;;;1.92;0.60;;;;;;;;;;6255075;23;20016;-88
2022/01/04 02:28:20;;;;;;;2.78;0.80;;;;;;;;;;6257378;23;20008;-87
2022/01/04 02:30:50;;;;;;;1.48;0.52;;;;;;;;;;6232012;23;20464;-84
2022/01/04 02:33:16;;;;;;;2.55;0.43;;;;;;;;;;6252118;23;20008;-86
2022/01/04 02:35:43;;;;;;;1.85;0.50;;;;;;;;;;6222768;23;20011;-88
2022/01/04 02:38:11;;;;;;;3.83;0.90;;;;;;;;;;6244855;23;20007;-89
2022/01/04 02:40:38;;;;;;;0.93;0.43;;;;;;;;;;6243175;23;20066;-90
2022/01/04 02:43:05;;;;;;;4.57;0.75;;;;;;;;;;6251417;23;20019;-87
2022/01/04 02:45:31;;;;;;;1.83;0.55;;;;;;;;;;6252077;23;20070;-89
2022/01/04 02:47:57;;;;;;;0.88;0.40;;;;;;;;;;6245253;22;20019;-88
2022/01/04 02:50:24;;;;;;;1.42;0.50;;;;;;;;;;6244973;23;20082;-89
2022/01/04 02:52:50;;;;;;;2.85;0.82;;;;;;;;;;6253834;23;20009;-89
2022/01/04 02:55:17;;;;;;;1.75;0.50;;;;;;;;;;6256123;23;20008;-89
2022/01/04 02:57:44;;;;;;;2.22;0.60;;;;;;;;;;6259428;23;20012;-90
2022/01/04 03:00:12;;;;;;;1.05;0.50;;;;;;;;;;6248993;23;20000;-89
2022/01/04 03:02:38;;;;;;;1.83;0.60;;;;;;;;;;6246206;23;20456;-88
2022/01/04 03:05:05;;;;;;;1.52;0.47;;;;;;;;;;6244723;23;20016;-90
2022/01/04 03:07:32;;;;;;;1.77;0.85;;;;;;;;;;6243078;23;20023;-90
2022/01/04 03:09:58;;;;;;;1.45;0.47;;;;;;;;;;6250394;23;20008;-89
2022/01/04 03:12:25;;;;;;;1.60;0.40;;;;;;;;;;6247774;22;20015;-88
2022/01/04 03:14:51;;;;;;;1.77;0.38;;;;;;;;;;6248752;23;20443;-89
2022/01/04 03:17:17;;;;;;;1.85;0.50;;;;;;;;;;6253538;23;20007;-90
2022/01/04 03:19:44;;;;;;;0.75;0.20;;;;;;;;;;6255313;23;20004;-88
2022/01/04 03:22:10;;;;;;;2.00;0.50;;;;;;;;;;6257250;23;20016;-89
2022/01/04 03:24:36;;;;;;;1.95;0.50;;;;;;;;;;6254834;23;20380;-88
2022/01/04 03:27:03;;;;;;;1.90;0.43;;;;;;;;;;6258246;23;20000;-89
2022/01/04 03:29:29;;;;;;;2.65;0.50;;;;;;;;;;6226369;23;20120;-87
2022/01/04 03:31:57;;;;;;;2.50;0.47;;;;;;;;;;6253239;23;20015;-89
2022/01/04 03:34:23;;;;;;;2.03;0.68;;;;;;;;;;6255876;23;20015;-89
2022/01/04 03:36:50;;;;;;;0.50;0.22;;;;;;;;;;6253694;23;20027;-89
2022/01/04 03:39:17;;;;;;;2.35;0.50;;;;;;;;;;6263347;23;19992;-90
2022/01/04 03:41:45;;;;;;;1.83;0.47;;;;;;;;;;6237279;23;20015;-89
2022/01/04 03:44:18;;;;;;;1.63;0.40;;;;;;;;;;6264317;23;20024;-89
2022/01/04 03:46:45;;;;;;;1.08;0.40;;;;;;;;;;6263593;23;20042;-89
2022/01/04 03:49:11;;;;;;;2.40;0.50;;;;;;;;;;6265792;22;20050;-89
2022/01/04 03:51:38;;;;;;;1.00;0.40;;;;;;;;;;6260058;23;20009;-89
2022/01/04 03:54:04;;;;;;;1.20;0.55;;;;;;;;;;6224060;23;20012;-89
2022/01/04 03:56:31;;;;;;;1.25;0.50;;;;;;;;;;6248672;23;20016;-90
2022/01/04 03:58:57;;;;;;;2.63;0.43;;;;;;;;;;6219798;23;20000;-89
2022/01/04 04:01:23;;;;;;;1.48;0.50;;;;;;;;;;6219540;23;20436;-89
2022/01/04 04:03:50;;;;;;;0.63;0.38;;;;;;;;;;6249956;23;20016;-89
2022/01/04 04:06:16;;;;;;;2.35;0.80;;;;;;;;;;6248631;23;20066;-89
2022/01/04 04:08:43;;;;;;;2.47;0.55;;;;;;;;;;6220825;23;20008;-89
2022/01/04 04:11:09;;;;;;;1.58;0.35;;;;;;;;;;6250984;22;20083;-88
2022/01/04 04:13:36;;;;;;;1.08;0.38;;;;;;;;;;6220369;23;20012;-90
2022/01/04 04:16:02;;;;;;;1.15;0.57;;;;;;;;;;6252879;23;20061;-89
2022/01/04 04:18:29;;;;;;;2.33;0.47;;;;;;;;;;6246479;23;20016;-89
2022/01/04 04:20:55;;;;;;;1.85;0.20;;;;;;;;;;6246440;23;20069;-90
2022/01/04 04:23:22;;;;;;;1.85;0.38;;;;;;;;;;6244272;23;20015;-88
2022/01/04 04:25:48;;;;;;;0.95;0.35;;;;;;;;;;6219045;23;20005;-91
2022/01/04 04:28:15;;;;;;;1.38;0.50;;;;;;;;;;6243312;23;20004;-90
2022/01/04 04:30:41;;;;;;;1.00;0.30;;;;;;;;;;6241985;23;20016;-89
2022/01/04 04:33:08;;;;;;;1.58;0.40;;;;;;;;;;6241740;23;20448;-90
2022/01/04 04:35:34;;;;;;;1.75;0.43;;;;;;;;;;6243149;23;20020;-88
2022/01/04 04:38:01;;;;;;;0.68;0.30;;;;;;;;;;6243690;23;20023;-89
2022/01/04 04:40:28;;;;;;;1.83;0.63;;;;;;;;;;6241712;23;20016;-89
2022/01/04 04:42:54;;;;;;;1.63;0.30;;;;;;;;;;6242013;23;20436;-90
2022/01/04 04:45:20;;;;;;;1.85;0.63;;;;;;;;;;6242094;23;20353;-89
2022/01/04 04:47:47;;;;;;;1.42;0.30;;;;;;;;;;6189126;22;20018;-89
2022/01/04 04:50:13;;;;;;;1.13;0.30;;;;;;;;;;6241849;23;20329;-90
2022/01/04 04:52:40;;;;;;;1.35;0.40;;;;;;;;;;6240692;23;20023;-90
2022/01/04 04:55:07;;;;;;;2.38;0.50;;;;;;;;;;6242227;23;20012;-89
2022/01/04 04:57:33;;;;;;;1.25;0.30;;;;;;;;;;6241297;23;20016;-89
2022/01/04 05:00:00;;;;;;;0.50;0.20;;;;;;;;;;6243639;23;20012;-89
2022/01/04 05:02:26;;;;;;;0.95;0.30;;;;;;;;;;6220092;23;20016;-88
2022/01/04 05:04:53;;;;;;;1.27;0.38;;;;;;;;;;6246109;23;20085;-89
2022/01/04 05:07:19;;;;;;;0.93;0.30;;;;;;;;;;6240577;23;20004;-90
2022/01/04 05:09:45;;;;;;;1.50;0.35;;;;;;;;;;6243050;23;20008;-90
2022/01/04 05:12:12;;;;;;;0.50;0.32;;;;;;;;;;6240803;22;20452;-90
2022/01/04 05:14:44;;;;;;;1.27;0.50;;;;;;;;;;6242389;23;20016;-90
2022/01/04 05:17:11;;;;;;;0.65;0.22;;;;;;;;;;6218028;23;20012;-89
2022/01/04 05:19:38;;;;;;;0.30;0.28;;;;;;;;;;6243657;23;20399;-88
2022/01/04 05:22:04;;;;;;;1.27;0.40;;;;;;;;;;6245361;23;20074;-88
2022/01/04 05:24:31;;;;;;;0.60;0.25;;;;;;;;;;6190226;23;20020;-88
2022/01/04 05:26:57;;;;;;;1.02;0.40;;;;;;;;;;6246051;23;20012;-88
2022/01/04 05:29:23;;;;;;;1.25;0.40;;;;;;;;;;6253239;23;20012;-89
2022/01/04 05:31:50;;;;;;;1.75;0.70;;;;;;;;;;6244203;23;20019;-87
2022/01/04 05:34:16;;;;;;;2.47;0.47;;;;;;;;;;6244923;23;20012;-89
2022/01/04 05:36:43;;;;;;;1.00;0.40;;;;;;;;;;6217090;23;20459;-88
2022/01/04 05:39:09;;;;;;;1.48;0.50;;;;;;;;;;6243381;23;20015;-89
2022/01/04 05:41:35;;;;;;;1.52;0.60;;;;;;;;;;6214412;23;20012;-87
2022/01/04 05:44:02;;;;;;;1.90;0.35;;;;;;;;;;6241301;23;20102;-87
2022/01/04 05:46:28;;;;;;;1.90;0.57;;;;;;;;;;6240810;23;20020;-88
2022/01/04 05:48:55;;;;;;;0.30;0.25;;;;;;;;;;6242967;23;20020;-89
2022/01/04 05:51:21;;;;;;;0.47;0.20;;;;;;;;;;6214763;23;20012;-83
2022/01/04 05:53:48;;;;;;;0.57;0.47;;;;;;;;;;6242351;23;20015;-90
2022/01/04 05:56:14;;;;;;;1.45;0.28;;;;;;;;;;6241978;23;20110;-91
2022/01/04 05:58:40;;;;;;;0.65;0.32;;;;;;;;;;6241169;23;20024;-90
2022/01/04 06:01:07;;;;;;;1.48;0.40;;;;;;;;;;6242267;23;20437;-90
2022/01/04 06:03:33;;;;;;;1.17;0.38;;;;;;;;;;6212747;23;20017;-89
2022/01/04 06:06:00;;;;;;;1.40;0.60;;;;;;;;;;6241891;23;20031;-90
2022/01/04 06:08:34;;;;;;;0.95;0.40;;;;;;;;;;6241238;23;20016;-88
2022/01/04 06:11:01;;;;;;;1.88;0.47;;;;;;;;;;6215563;23;20016;-89
2022/01/04 06:16:12;;;;;;;0.20;0.20;;;;;;;;;;6242872;23;20063;-89
2022/01/04 06:18:41;;;;;;;0.68;0.30;;;;;;;;;;6215604;23;20016;-92
2022/01/04 06:21:08;;;;;;;2.22;0.20;;;;;;;;;;6192143;23;20016;-89
2022/01/04 06:23:34;;;;;;;0.93;0.30;;;;;;;;;;6243729;23;20012;-89
2022/01/04 06:26:01;;;;;;;1.05;0.45;;;;;;;;;;6219773;23;20020;-89
2022/01/04 06:28:27;;;;;;;0.73;0.20;;;;;;;;;;6247290;23;20016;-88
2022/01/04 06:30:54;;;;;;;0.47;0.20;;;;;;;;;;6250399;23;20016;-90
2022/01/04 06:33:21;;;;;;;1.63;0.68;;;;;;;;;;6248624;23;20244;-87
2022/01/04 06:35:49;;;;;;;2.35;0.40;;;;;;;;;;6242972;23;20070;-89
2022/01/04 06:38:16;;;;;;;0.70;0.30;;;;;;;;;;6243047;23;20008;-90
2022/01/04 06:40:42;;;;;;;1.70;0.40;;;;;;;;;;6240273;23;20024;-88
2022/01/04 06:43:09;;;;;;;2.70;0.40;;;;;;;;;;6215223;23;20054;-89
2022/01/04 06:45:35;;;;;;;1.08;0.50;;;;;;;;;;6241023;23;20326;-89
2022/01/04 06:48:01;;;;;;;1.30;0.40;;;;;;;;;;6243339;23;20008;-89
2022/01/04 06:50:28;;;;;;;1.17;0.40;;;;;;;;;;6251582;23;20012;-88
2022/01/04 06:52:54;;;;;;;1.38;0.40;;;;;;;;;;6248086;23;20000;-89
2022/01/04 06:55:21;;;;;;;1.52;0.32;;;;;;;;;;6241296;23;20345;-86
2022/01/04 06:57:47;;;;;;;1.38;0.50;;;;;;;;;;6213219;23;20048;-86
2022/01/04 07:00:14;;;;;;;0.70;0.30;;;;;;;;;;6239805;23;20012;-86
2022/01/04 07:02:40;;;;;;;1.98;0.30;;;;;;;;;;6239571;23;20012;-87
2022/01/04 07:05:07;;;;;;;0.32;0.20;;;;;;;;;;6241480;23;20020;-88
2022/01/04 07:07:33;;;;;;;1.30;0.43;;;;;;;;;;6213732;23;20016;-87
2022/01/04 07:10:00;;;;;;;0.65;0.30;;;;;;;;;;6240783;22;20412;-86
2022/01/04 07:12:27;;;;;;;0.90;0.20;;;;;;;;;;6239916;23;20008;-87
2022/01/04 07:14:53;;;;;;;0.90;0.38;;;;;;;;;;6240702;23;20019;-88
2022/01/04 07:17:20;;;;;;;0.63;0.30;;;;;;;;;;6242016;23;20016;-89
2022/01/04 07:19:47;;;;;;;2.50;0.50;;;;;;;;;;6240502;23;20015;-87
2022/01/04 07:22:13;;;;;;;0.50;0.30;;;;;;;;;;6243420;23;20020;-87
2022/01/04 07:24:40;;;;;;;0.75;0.30;;;;;;;;;;6240520;23;20348;-87
2022/01/04 07:27:06;;;;;;;2.65;0.60;;;;;;;;;;6242238;23;20008;-89
2022/01/04 07:29:32;;;;;;;1.38;0.50;;;;;;;;;;6240304;23;20012;-88
2022/01/04 07:31:59;;;;;;;0.75;0.28;;;;;;;;;;6216234;23;20019;-87
2022/01/04 07:34:25;;;;;;;1.85;0.65;;;;;;;;;;6240953;23;20449;-87
2022/01/04 07:36:52;;;;;;;0.57;0.30;;;;;;;;;;6242132;23;20012;-88
2022/01/04 07:39:18;;;;;;;0.25;0.22;;;;;;;;;;6243480;23;20352;-88
2022/01/04 07:41:44;;;;;;;0.95;0.40;;;;;;;;;;6243681;23;20088;-85
2022/01/04 07:44:11;;;;;;;0.75;0.30;;;;;;;;;;6240336;23;20467;-87
2022/01/04 07:46:37;;;;;;;0.75;0.30;;;;;;;;;;6211602;23;20038;-86
2022/01/04 07:49:04;;;;;;;0.80;0.47;;;;;;;;;;6215728;23;20020;-86
2022/01/04 07:51:33;;;;;;;0.93;0.45;;;;;;;;;;6213264;23;20016;-85
2022/01/04 07:53:59;;;;;;;1.45;0.40;;;;;;;;;;6241713;23;20011;-84
2022/01/04 07:56:25;;;;;;;1.25;0.50;;;;;;;;;;6239928;23;20008;-86
2022/01/04 07:58:52;;;;;;;0.38;0.20;;;;;;;;;;6241652;23;20013;-84
2022/01/04 08:01:20;;;;;;;0.70;0.32;;;;;;;;;;6242280;23;20035;-85
2022/01/04 08:03:47;;;;;;;1.15;0.38;;;;;;;;;;6241674;23;20452;-88
2022/01/04 08:06:13;;;;;;;0.93;0.40;;;;;;;;;;6241854;23;20020;-88
2022/01/04 08:08:39;;;;;;;2.90;0.40;;;;;;;;;;6240552;23;20012;-88
2022/01/04 08:11:06;;;;;;;0.95;0.40;;;;;;;;;;6242423;22;20008;-88
2022/01/04 08:13:32;;;;;;;1.35;0.60;;;;;;;;;;6227435;23;20020;-88
2022/01/04 08:15:59;;;;;;;1.58;0.52;;;;;;;;;;6191410;23;20004;-86
2022/01/04 08:18:25;;;;;;;1.48;0.75;;;;;;;;;;6188739;23;20459;-87
2022/01/04 08:20:56;;;;;;;0.90;0.50;;;;;;;;;;6241142;23;20058;-88
2022/01/04 08:23:22;;;;;;;1.92;0.65;;;;;;;;;;6240116;23;20019;-84
2022/01/04 08:25:49;;;;;;;2.45;0.52;;;;;;;;;;6240310;23;20020;-85
2022/01/04 08:28:15;;;;;;;1.45;0.30;;;;;;;;;;6240844;23;20012;-83
2022/01/04 08:30:43;;;;;;;0.55;0.30;;;;;;;;;;6239674;23;20020;-82
2022/01/04 08:33:10;;;;;;;2.25;0.50;;;;;;;;;;6241039;23;20012;-87
2022/01/04 08:35:37;;;;;;;0.70;0.32;;;;;;;;;;6240489;23;20012;-85
2022/01/04 08:38:03;;;;;;;1.42;0.40;;;;;;;;;;6240566;23;20453;-82
2022/01/04 08:40:30;;;;;;;1.80;0.40;;;;;;;;;;6239561;23;20471;-85
2022/01/04 08:42:56;;;;;;;2.25;0.52;;;;;;;;;;6239318;23;20016;-85
2022/01/04 08:45:24;;;;;;;0.55;0.32;;;;;;;;;;6238604;23;20012;-83
2022/01/04 08:47:54;;;;;;;0.60;0.22;;;;;;;;;;6212743;23;20009;-85
2022/01/04 08:50:21;;;;;;;2.67;0.40;;;;;;;;;;6238812;23;20408;-86
2022/01/04 08:52:52;;;;;;;1.27;0.55;;;;;;;;;;6235943;23;20279;-84
2022/01/04 08:55:19;;;;;;;;;;;;;;;;;;6238897;23;20019;-85
2022/01/04 08:57:45;;;;;;;1.85;0.60;;;;;;;;;;6237346;23;19961;-86
2022/01/04 09:00:12;;;;;;;1.33;0.50;;;;;;;;;;6237779;23;20016;-85
2022/01/04 09:02:38;;;;;;;0.65;0.30;;;;;;;;;;6235862;23;20070;-85
2022/01/04 09:05:05;;;;;;;0.88;0.40;;;;;;;;;;6237844;23;20453;-86
2022/01/04 09:07:34;;;;;;;1.30;0.38;;;;;;;;;;6238081;23;20012;-84
2022/01/04 09:10:01;;;;;;;1.27;0.30;;;;;;;;;;6237822;22;20012;-85
2022/01/04 09:12:40;;;;;;;1.90;0.70;;;;;;;;;;6211156;23;20518;-85
2022/01/04 09:15:28;;;;;;;1.00;0.45;;;;;;;;;;6238035;23;20012;-85
2022/01/04 09:20:38;;;;;;;2.45;0.50;;;;;;;;;;6237122;23;20070;-80
2022/01/04 09:23:05;;;;;;;1.67;0.57;;;;;;;;;;6209117;23;20004;-82
2022/01/04 09:25:31;;;;;;;2.05;0.88;;;;;;;;;;6222222;23;20078;-82
2022/01/04 09:27:58;;;;;;;1.88;0.75;;;;;;;;;;6235201;23;20012;-82
2022/01/04 09:30:27;;;;;;;2.65;0.98;;;;;;;;;;6232613;23;20000;-85
2022/01/04 09:32:53;;;;;;;2.45;0.85;;;;;;;;;;6210652;23;20012;-84
2022/01/04 09:35:20;;;;;;;1.00;0.60;;;;;;;;;;6247514;23;20015;-85
2022/01/04 09:37:46;;;;;;;2.83;0.95;;;;;;;;;;6213491;23;20004;-86
2022/01/04 09:40:12;;;;;;;4.35;0.90;;;;;;;;;;6239635;23;20008;-84
2022/01/04 09:42:39;;;;;;;3.75;0.80;;;;;;;;;;6236335;23;20008;-83
2022/01/04 09:45:06;;;;;;;2.50;0.93;;;;;;;;;;6237555;23;20448;-85
2022/01/04 09:47:32;;;;;;;3.47;1.00;;;;;;;;;;6236817;23;20020;-84
2022/01/04 09:49:59;;;;;;;3.22;1.08;;;;;;;;;;6237462;23;20027;-85
2022/01/04 09:52:25;;;;;;;2.85;0.88;;;;;;;;;;6236797;23;20019;-86
2022/01/04 09:54:55;;;;;;;2.30;0.80;;;;;;;;;;6237516;23;20004;-85
2022/01/04 09:57:21;;;;;;;3.33;1.27;;;;;;;;;;6215740;23;20012;-86
2022/01/04 09:59:49;;;;;;;3.35;0.80;;;;;;;;;;6242998;23;20035;-90
2022/01/04 10:02:20;;;;;;;3.63;0.90;;;;;;;;;;6245890;23;20063;-88
2022/01/04 10:04:46;;;;;;;3.72;1.20;;;;;;;;;;6223937;23;20016;-90
2022/01/04 10:07:13;;;;;;;6.28;1.15;;;;;;;;;;6259586;23;20008;-89
2022/01/04 10:09:45;;;;;;;3.78;1.20;;;;;;;;;;6232747;23;20017;-91
2022/01/04 10:12:21;;;;;;;5.50;1.17;;;;;;;;;;6258308;23;20459;-90
2022/01/04 10:14:49;;;;;;;3.80;0.77;;;;;;;;;;6249524;23;20035;-92
2022/01/04 10:17:20;;;;;;;3.78;0.80;;;;;;;;;;6245842;23;20317;-88
2022/01/04 10:19:48;;;;;;;4.40;0.98;;;;;;;;;;6213880;23;20008;-87
2022/01/04 10:22:40;;;;;;;3.15;0.90;;;;;;;;;;6219007;23;20008;-87
2022/01/04 10:25:07;;;;;;;2.35;0.90;;;;;;;;;;6234650;23;21261;-89
2022/01/04 10:27:33;;;;;;;4.25;1.13;;;;;;;;;;6230073;23;20030;-88
2022/01/04 10:30:20;;;;;;;2.25;0.90;;;;;;;;;;6241319;23;20317;-90
2022/01/04 10:33:13;;;;;;;4.93;1.10;;;;;;;;;;6239928;23;20012;-87
2022/01/04 10:35:41;;;;;;;2.05;0.82;;;;;;;;;;6233519;23;20016;-89
2022/01/04 10:38:17;;;;;;;3.15;0.90;;;;;;;;;;6216232;23;20008;-89
2022/01/04 10:40:48;;;;;;;2.40;0.65;;;;;;;;;;6241291;23;20016;-87
2022/01/04 10:43:19;;;;;;;2.80;0.80;;;;;;;;;;6241554;23;20431;-86
2022/01/04 10:45:46;;;;;;;1.67;0.65;;;;;;;;;;6212755;23;20024;-88
2022/01/04 10:48:14;;;;;;;2.42;0.57;;;;;;;;;;6241465;23;20023;-88
2022/01/04 10:50:45;;;;;;;1.55;0.82;;;;;;;;;;6239565;23;20536;-85
2022/01/04 10:53:28;;;;;;;3.33;0.88;;;;;;;;;;6242463;23;20321;-88
2022/01/04 10:55:56;;;;;;;2.65;0.88;;;;;;;;;;6246976;23;21171;-86
2022/01/04 10:58:24;;;;;;;2.30;1.00;;;;;;;;;;6255845;23;20011;-88
2022/01/04 11:00:51;;;;;;;1.52;0.50;;;;;;;;;;6242101;23;20043;-85
2022/01/04 11:03:28;;;;;;;2.17;0.82;;;;;;;;;;6242694;23;20016;-87
2022/01/04 11:06:01;;;;;;;2.40;0.63;;;;;;;;;;6241153;23;20043;-88
2022/01/04 11:08:28;;;;;;;1.90;0.70;;;;;;;;;;6241241;23;20066;-87
2022/01/04 11:10:55;;;;;;;2.03;0.50;;;;;;;;;;6242200;22;20032;-87
2022/01/04 11:13:22;;;;;;;6.00;1.00;;;;;;;;;;6242724;23;20039;-87
2022/01/04 11:15:49;;;;;;;1.45;0.60;;;;;;;;;;6242243;23;21464;-88
2022/01/04 11:18:15;;;;;;;2.75;0.77;;;;;;;;;;6243998;23;20070;-88
2022/01/04 11:20:42;;;;;;;3.95;0.70;;;;;;;;;;6242960;23;20023;-89
2022/01/04 11:23:09;;;;;;;3.33;0.82;;;;;;;;;;6243016;23;20078;-92
2022/01/04 11:25:36;;;;;;;5.00;0.80;;;;;;;;;;6243859;23;20024;-92
2022/01/04 11:28:03;;;;;;;3.67;0.93;;;;;;;;;;6246434;23;20023;-91
2022/01/04 11:30:39;;;;;;;2.75;0.77;;;;;;;;;;6216054;23;20013;-91
2022/01/04 11:33:10;;;;;;;3.42;0.80;;;;;;;;;;6218529;23;20016;-89
2022/01/04 11:35:36;;;;;;;2.23;0.77;;;;;;;;;;6243249;23;20008;-88
2022/01/04 11:38:03;;;;;;;2.33;0.95;;;;;;;;;;6218402;23;20007;-90
2022/01/04 11:40:34;;;;;;;3.03;0.60;;;;;;;;;;6235829;23;20071;-91
2022/01/04 11:43:29;;;;;;;1.85;0.75;;;;;;;;;;6222318;23;20016;-91
2022/01/04 11:45:56;;;;;;;2.10;0.82;;;;;;;;;;6244733;23;20070;-90
2022/01/04 11:48:26;;;;;;;3.45;1.88;;;;;;;;;;6241928;23;20031;-90
2022/01/04 11:50:56;;;;;;;4.30;0.98;;;;;;;;;;6243285;23;21980;-89
2022/01/04 11:53:22;;;;;;;3.03;0.80;;;;;;;;;;6245246;23;20027;-88
2022/01/04 11:55:51;;;;;;;2.20;0.80;;;;;;;;;;6241620;23;22359;-89
2022/01/04 11:58:20;;;;;;;4.85;1.25;;;;;;;;;;6230547;23;20008;-88
2022/01/04 12:00:58;;;;;;;6.70;1.52;;;;;;;;;;6242539;23;20016;-90
2022/01/04 12:03:47;;;;;;;2.53;1.20;;;;;;;;;;6241047;23;20008;-88
2022/01/04 12:06:14;;;;;;;4.38;1.85;;;;;;;;;;6243133;23;20016;-88
2022/01/04 12:08:45;;;;;;;5.53;2.30;;;;;;;;;;6214357;23;20082;-89
2022/01/04 12:11:22;;;;;;;8.97;3.10;;;;;;;;;;6243605;22;20432;-88
2022/01/04 12:13:48;;;;;;;3.88;2.30;;;;;;;;;;6241037;23;20085;-88
2022/01/04 12:16:15;;;;;;;8.45;3.45;;;;;;;;;;6217365;23;20397;-89
2022/01/04 12:18:42;;;;;;;9.15;4.45;;;;;;;;;;6252355;23;20012;-89
2022/01/04 12:21:14;;;;;;;6.15;2.50;;;;;;;;;;6232454;23;20445;-90
2022/01/04 12:23:40;;;;;;;7.47;3.25;;;;;;;;;;6242997;23;20016;-89
2022/01/04 12:26:14;;;;;;;10.48;2.97;;;;;;;;;;6243458;23;20066;-90
2022/01/04 12:28:41;;;;;;;5.68;2.42;;;;;;;;;;6202650;23;20016;-89
2022/01/04 12:31:11;;;;;;;4.68;2.60;;;;;;;;;;6193082;23;20019;-90
2022/01/04 12:33:37;;;;;;;6.50;2.55;;;;;;;;;;6199363;23;20012;-90
2022/01/04 12:36:04;;;;;;;5.20;2.13;;;;;;;;;;6191821;23;20051;-89
2022/01/04 12:38:32;;;;;;;6.65;2.22;;;;;;;;;;6243416;23;20062;-89
2022/01/04 12:40:59;;;;;;;7.68;2.45;;;;;;;;;;6217981;23;20372;-90
2022/01/04 12:43:27;;;;;;;9.10;2.75;;;;;;;;;;6243730;23;20099;-90
2022/01/04 12:46:00;;;;;;;8.82;2.67;;;;;;;;;;6243104;23;20597;-88
2022/01/04 12:48:45;;;;;;;4.95;2.03;;;;;;;;;;6241990;23;20113;-89
2022/01/04 12:51:25;;;;;;;3.88;2.10;;;;;;;;;;6244181;23;20019;-89
2022/01/04 12:53:52;;;;;;;8.30;2.95;;;;;;;;;;6238949;23;21605;-85
2022/01/04 12:56:18;;;;;;;4.70;2.30;;;;;;;;;;6210324;23;20577;-85
2022/01/04 12:58:45;;;;;;;6.82;2.78;;;;;;;;;;6238789;23;20016;-84
2022/01/04 13:01:12;;;;;;;6.30;2.70;;;;;;;;;;6239377;23;20024;-84
2022/01/04 13:03:39;;;;;;;7.97;3.38;;;;;;;;;;6240617;23;20027;-83
2022/01/04 13:06:05;;;;;;;7.28;2.53;;;;;;;;;;6244065;23;20020;-84
2022/01/04 13:08:33;;;;;;;3.88;1.88;;;;;;;;;;6210401;23;20066;-85
2022/01/04 13:11:06;;;;;;;6.00;2.25;;;;;;;;;;6238156;22;20074;-84
2022/01/04 13:13:32;;;;;;;3.90;2.05;;;;;;;;;;6224606;23;20468;-85
2022/01/04 13:16:17;;;;;;;6.03;2.42;;;;;;;;;;6239039;23;20016;-91
2022/01/04 13:18:48;;;;;;;7.32;2.83;;;;;;;;;;6211680;23;20059;-89
2022/01/04 13:21:14;;;;;;;5.72;2.15;;;;;;;;;;6188995;23;20528;-90
2022/01/04 13:23:42;;;;;;;7.60;2.38;;;;;;;;;;6211262;23;20009;-89
2022/01/04 13:26:09;;;;;;;5.88;1.73;;;;;;;;;;6212618;23;20356;-89
2022/01/04 13:28:36;;;;;;;3.45;1.40;;;;;;;;;;6240216;23;20015;-89
2022/01/04 13:31:03;;;;;;;8.15;2.38;;;;;;;;;;6213370;23;20072;-89
2022/01/04 13:33:32;;;;;;;7.38;2.22;;;;;;;;;;6239250;23;20340;-89
2022/01/04 13:35:59;;;;;;;5.25;1.55;;;;;;;;;;6241952;23;20388;-89
2022/01/04 13:38:27;;;;;;;7.18;2.28;;;;;;;;;;6243872;23;20476;-88
2022/01/04 13:41:01;;;;;;;5.22;1.45;;;;;;;;;;6249826;23;20012;-88
2022/01/04 13:43:29;;;;;;;5.20;1.85;;;;;;;;;;6256718;23;20071;-89
2022/01/04 13:45:59;;;;;;;5.60;1.60;;;;;;;;;;6223210;23;20074;-91
2022/01/04 13:48:26;;;;;;;3.95;1.50;;;;;;;;;;6245528;22;20016;-90
2022/01/04 13:50:53;;;;;;;3.70;1.45;;;;;;;;;;6244956;23;20074;-90
2022/01/04 13:53:21;;;;;;;4.63;1.55;;;;;;;;;;6244747;23;20015;-90
2022/01/04 13:56:01;;;;;;;7.07;1.98;;;;;;;;;;6242514;23;20012;-92
2022/01/04 13:58:31;;;;;;;3.45;1.50;;;;;;;;;;6241203;23;20016;-91
2022/01/04 14:00:57;;;;;;;4.10;1.60;;;;;;;;;;6241971;23;20008;-93
2022/01/04 14:03:30;;;;;;;3.85;1.50;;;;;;;;;;6215395;23;20043;-91
2022/01/04 14:05:59;;;;;;;2.15;0.95;;;;;;;;;;6241656;23;20522;-90
2022/01/04 14:08:44;;;;;;;3.25;1.40;;;;;;;;;;6240509;23;20012;-91
2022/01/04 14:11:11;;;;;;;4.63;1.60;;;;;;;;;;6216933;23;20004;-91
2022/01/04 14:13:41;;;;;;;2.42;1.00;;;;;;;;;;6217196;23;20008;-92
2022/01/04 14:16:13;;;;;;;1.67;0.90;;;;;;;;;;6189315;23;20027;-93
2022/01/04 14:18:59;;;;;;;2.60;0.90;;;;;;;;;;6218982;23;20391;-93
2022/01/04 14:21:39;;;;;;;5.85;1.40;;;;;;;;;;6252553;23;20016;-88
2022/01/04 14:24:25;;;;;;;2.78;1.08;;;;;;;;;;6255086;23;20058;-89
2022/01/04 14:26:51;;;;;;;2.00;1.13;;;;;;;;;;6251559;23;21239;-88
2022/01/04 14:29:34;;;;;;;3.00;1.23;;;;;;;;;;6254289;23;20008;-88
2022/01/04 14:32:05;;;;;;;2.97;1.50;;;;;;;;;;6255955;23;21227;-86
2022/01/04 14:34:31;;;;;;;5.38;1.38;;;;;;;;;;6256636;23;20016;-86
2022/01/04 14:36:58;;;;;;;4.18;1.27;;;;;;;;;;6257369;23;20023;-87
2022/01/04 14:39:25;;;;;;;3.38;1.50;;;;;;;;;;6258834;23;20005;-82
2022/01/04 14:41:52;;;;;;;2.85;1.40;;;;;;;;;;6230710;23;20030;-86
2022/01/04 14:44:19;;;;;;;4.00;1.55;;;;;;;;;;6253361;23;20009;-86
2022/01/04 14:46:45;;;;;;;2.80;1.30;;;;;;;;;;6211008;23;20431;-85
2022/01/04 14:49:11;;;;;;;3.92;1.38;;;;;;;;;;6241718;23;20020;-85
2022/01/04 14:51:38;;;;;;;4.90;1.48;;;;;;;;;;6238665;23;20070;-84
2022/01/04 14:54:04;;;;;;;5.63;1.45;;;;;;;;;;6238231;23;20009;-86
2022/01/04 14:56:30;;;;;;;4.78;1.48;;;;;;;;;;6238130;23;20666;-88
2022/01/04 14:58:58;;;;;;;3.30;1.10;;;;;;;;;;6234438;23;20019;-87